Captain Ed — WDF6338 — position and weather

sailwx.info

Track history (hours):
 
Tides and Currents Weather Stations Pressure Air Temp Water Temp Dewpoint Dewpoint Depression Visibility Wind Speed Wind Dir Waves Ship Positions

Captain Ed

Owner: Norfolk Dredging Company, Chesapeake, VA. More information available from US FCC via Universal Licensing System and Coast Guard Vessel Documentation Center.

Last reported at 2018-Apr-16 21:06 UTC. Time now 2018-Apr-21 02:19 UTC.
Position N 36°43' W 076°14'.

Length 22 m; draft 3 m.

Type: Tug. MMSI: 367473210.

Date/timePositionNaut miles runAvg speedWind from/ knotsBaromVisibWave heightAir tempDewpointWater temp
2018-Apr-16 21:06N 36°43' W 076°14'0 2.8
2018-Apr-16 20:56N 36°43' W 076°14'0 0.7
2018-Apr-16 20:29N 36°43' W 076°15'3 6.1
2018-Apr-16 20:00N 36°45' W 076°18'3 6.0
2018-Apr-16 19:30N 36°48' W 076°17'4 6.7
2018-Apr-16 18:52N 36°52' W 076°20'2 3.6
2018-Apr-16 18:24N 36°54' W 076°20'3 6.8
2018-Apr-16 18:00N 36°51' W 076°19'3 7.0
2018-Apr-16 17:30N 36°48' W 076°17'0 0.8
2018-Apr-16 17:00N 36°48' W 076°18'0 0.0
2018-Apr-16 16:30N 36°48' W 076°18'0 0.0
2018-Apr-16 16:00N 36°48' W 076°18'0 0.0
2018-Apr-16 15:30N 36°48' W 076°18'0 0.0
2018-Apr-16 15:00N 36°48' W 076°18'0 0.0
2018-Apr-16 14:30N 36°48' W 076°18'0 0.0
2018-Apr-16 14:00N 36°48' W 076°18'0 0.0
2018-Apr-16 13:30N 36°48' W 076°18'0 0.0
2018-Apr-16 13:00N 36°48' W 076°18'0 0.0
2018-Apr-16 12:30N 36°48' W 076°18'0 0.0
2018-Apr-16 12:00N 36°48' W 076°18'0 0.0
2018-Apr-16 11:30N 36°48' W 076°18'0 0.0
2018-Apr-16 11:00N 36°48' W 076°18'3 5.8
2018-Apr-16 10:30N 36°51' W 076°18'4 5.7
2018-Apr-16 09:49N 36°54' W 076°21'2 7.8
2018-Apr-16 09:30N 36°52' W 076°19'4 7.9
2018-Apr-16 09:00N 36°48' W 076°18'3 6.3
2018-Apr-16 08:30N 36°45' W 076°18'3 3.8
2018-Apr-16 07:46N 36°43' W 076°15'  
2018-Apr-14 00:10N 36°43' W 076°13'1 7.3
2018-Apr-14 00:01N 36°43' W 076°14'2 3.6
2018-Apr-13 23:30N 36°44' W 076°16'2 3.1
2018-Apr-13 23:00N 36°45' W 076°18'0 0.0
2018-Apr-13 22:30N 36°45' W 076°18'0 0.0
2018-Apr-13 22:00N 36°45' W 076°18'0 0.0
2018-Apr-13 21:30N 36°45' W 076°18'0 0.0
2018-Apr-13 21:00N 36°45' W 076°18'2 5.0
2018-Apr-13 20:30N 36°44' W 076°15'1 1.7
2018-Apr-13 20:00N 36°43' W 076°14'0 0.1
2018-Apr-13 18:07N 36°43' W 076°14'1 4.3
2018-Apr-13 18:00N 36°43' W 076°14'0 0.6
2018-Apr-13 17:24N 36°43' W 076°15'0 1.1
2018-Apr-13 17:00N 36°44' W 076°15'2 3.3
2018-Apr-13 16:20N 36°45' W 076°18'0 0.9
2018-Apr-13 16:00N 36°45' W 076°18'2 3.3
2018-Apr-13 15:30N 36°46' W 076°18'1 2.3
2018-Apr-13 15:00N 36°48' W 076°18'2 3.6
2018-Apr-13 14:31N 36°49' W 076°17'1 2.4
2018-Apr-13 14:00N 36°50' W 076°17'0 0.6
2018-Apr-13 13:30N 36°50' W 076°17'0 0.1
2018-Apr-13 13:00N 36°50' W 076°17'0 0.0
2018-Apr-13 12:30N 36°50' W 076°17'0 0.0
2018-Apr-13 11:58N 36°50' W 076°17'1 1.6
2018-Apr-13 11:30N 36°50' W 076°18'5 5.0
2018-Apr-13 10:30N 36°45' W 076°18'3 5.9
2018-Apr-13 10:01N 36°44' W 076°15'  
2018-Apr-06 23:36N 36°43' W 076°13'1 3.7
2018-Apr-06 23:23N 36°43' W 076°14'1 2.2
2018-Apr-06 22:54N 36°43' W 076°15'0 0.6
2018-Apr-06 22:31N 36°44' W 076°15'0 0.4
2018-Apr-06 21:50N 36°44' W 076°15'0 1.5
2018-Apr-06 21:31N 36°44' W 076°16'  
Track history (hours):
 
Tides and Currents Weather Stations Pressure Air Temp Water Temp Dewpoint Dewpoint Depression Visibility Wind Speed Wind Dir Waves Ship Positions

Captain Ed

Owner: Norfolk Dredging Company, Chesapeake, VA. More information available from US FCC via Universal Licensing System and Coast Guard Vessel Documentation Center.

Last reported at 2018-Apr-16 21:06 UTC. Time now 2018-Apr-21 02:19 UTC.
Position N 36°43' W 076°14'.

Length 22 m; draft 3 m.

Type: Tug. MMSI: 367473210.

Date/timePositionNaut miles runAvg speedWind from/ knotsBaromVisibWave heightAir tempDewpointWater temp
2018-Apr-16 21:06N 36°43' W 076°14'0 2.8
2018-Apr-16 20:56N 36°43' W 076°14'0 0.7
2018-Apr-16 20:29N 36°43' W 076°15'3 6.1
2018-Apr-16 20:00N 36°45' W 076°18'3 6.0
2018-Apr-16 19:30N 36°48' W 076°17'4 6.7
2018-Apr-16 18:52N 36°52' W 076°20'2 3.6
2018-Apr-16 18:24N 36°54' W 076°20'3 6.8
2018-Apr-16 18:00N 36°51' W 076°19'3 7.0
2018-Apr-16 17:30N 36°48' W 076°17'0 0.8
2018-Apr-16 17:00N 36°48' W 076°18'0 0.0
2018-Apr-16 16:30N 36°48' W 076°18'0 0.0
2018-Apr-16 16:00N 36°48' W 076°18'0 0.0
2018-Apr-16 15:30N 36°48' W 076°18'0 0.0
2018-Apr-16 15:00N 36°48' W 076°18'0 0.0
2018-Apr-16 14:30N 36°48' W 076°18'0 0.0
2018-Apr-16 14:00N 36°48' W 076°18'0 0.0
2018-Apr-16 13:30N 36°48' W 076°18'0 0.0
2018-Apr-16 13:00N 36°48' W 076°18'0 0.0
2018-Apr-16 12:30N 36°48' W 076°18'0 0.0
2018-Apr-16 12:00N 36°48' W 076°18'0 0.0
2018-Apr-16 11:30N 36°48' W 076°18'0 0.0
2018-Apr-16 11:00N 36°48' W 076°18'3 5.8
2018-Apr-16 10:30N 36°51' W 076°18'4 5.7
2018-Apr-16 09:49N 36°54' W 076°21'2 7.8
2018-Apr-16 09:30N 36°52' W 076°19'4 7.9
2018-Apr-16 09:00N 36°48' W 076°18'3 6.3
2018-Apr-16 08:30N 36°45' W 076°18'3 3.8
2018-Apr-16 07:46N 36°43' W 076°15'  
2018-Apr-14 00:10N 36°43' W 076°13'1 7.3
2018-Apr-14 00:01N 36°43' W 076°14'2 3.6
2018-Apr-13 23:30N 36°44' W 076°16'2 3.1
2018-Apr-13 23:00N 36°45' W 076°18'0 0.0
2018-Apr-13 22:30N 36°45' W 076°18'0 0.0
2018-Apr-13 22:00N 36°45' W 076°18'0 0.0
2018-Apr-13 21:30N 36°45' W 076°18'0 0.0
2018-Apr-13 21:00N 36°45' W 076°18'2 5.0
2018-Apr-13 20:30N 36°44' W 076°15'1 1.7
2018-Apr-13 20:00N 36°43' W 076°14'0 0.1
2018-Apr-13 18:07N 36°43' W 076°14'1 4.3
2018-Apr-13 18:00N 36°43' W 076°14'0 0.6
2018-Apr-13 17:24N 36°43' W 076°15'0 1.1
2018-Apr-13 17:00N 36°44' W 076°15'2 3.3
2018-Apr-13 16:20N 36°45' W 076°18'0 0.9
2018-Apr-13 16:00N 36°45' W 076°18'2 3.3
2018-Apr-13 15:30N 36°46' W 076°18'1 2.3
2018-Apr-13 15:00N 36°48' W 076°18'2 3.6
2018-Apr-13 14:31N 36°49' W 076°17'1 2.4
2018-Apr-13 14:00N 36°50' W 076°17'0 0.6
2018-Apr-13 13:30N 36°50' W 076°17'0 0.1
2018-Apr-13 13:00N 36°50' W 076°17'0 0.0
2018-Apr-13 12:30N 36°50' W 076°17'0 0.0
2018-Apr-13 11:58N 36°50' W 076°17'1 1.6
2018-Apr-13 11:30N 36°50' W 076°18'5 5.0
2018-Apr-13 10:30N 36°45' W 076°18'3 5.9
2018-Apr-13 10:01N 36°44' W 076°15'  
2018-Apr-06 23:36N 36°43' W 076°13'1 3.7
2018-Apr-06 23:23N 36°43' W 076°14'1 2.2
2018-Apr-06 22:54N 36°43' W 076°15'0 0.6
2018-Apr-06 22:31N 36°44' W 076°15'0 0.4
2018-Apr-06 21:50N 36°44' W 076°15'0 1.5
2018-Apr-06 21:31N 36°44' W 076°16'  

Dump ship's entire track history